ADDS METAR Data INFO
IDs: Format: Raw Decoded Include TAF

Data at: 2054 UTC 26 May 2017

KLFK 261953Z AUTO 17011KT 10SM BKN032 BKN041 31/23 A2987 RMK AO2 SLP109 T03060233
KLFK 261907Z AUTO 19008G15KT 10SM SCT029 BKN038 29/23 A2989 RMK AO2 T02940228
KLFK 261853Z AUTO 17013G16KT 10SM BKN029 BKN036 29/22 A2989 RMK AO2 SLP117 T02890222
KLFK 261753Z AUTO 18010KT 160V220 10SM SCT022 SCT029 OVC038 28/23 A2991 RMK AO2 SLP124 T02830228 10283 20200 58001
KLFK 261653Z AUTO 18009G17KT 10SM FEW020 SCT028 OVC035 27/22 A2992 RMK AO2 SLP126 T02670222
KLFK 261651Z AUTO 19009G17KT 10SM FEW020 SCT028 OVC035 27/22 A2992 RMK AO2
KLFK 261553Z AUTO 18013G17KT 10SM BKN018 BKN025 OVC039 26/22 A2991 RMK AO2 SLP125 T02560222
KLFK 261522Z AUTO 20011G18KT 10SM BKN017 OVC037 25/22 A2991 RMK AO2 T02500217
KLFK 261453Z AUTO 18009KT 10SM FEW014 OVC036 24/21 A2990 RMK AO2 SLP120 T02440211 50013
KLFK 261353Z AUTO 16005KT 10SM OVC034 22/21 A2990 RMK AO2 SLP121 T02220206
KLFK 261345Z AUTO 16005KT 10SM FEW023 OVC032 22/21 A2990 RMK AO2 T02220206
KLFK 261253Z AUTO 15007KT 10SM OVC024 21/20 A2988 RMK AO2 SLP113 T02110200
KLFK 261153Z AUTO 14006KT 10SM OVC024 20/19 A2986 RMK AO2 SLP107 T02000189 10206 20189 51016
KLFK 261053Z AUTO 17004KT 10SM OVC022 19/19 A2986 RMK AO2 SLP106 T01940189 $
KLFK 261018Z AUTO 20003KT 10SM BKN021 19/18 A2985 RMK AO2 T01940183 $
KLFK 260953Z AUTO 18004KT 10SM FEW020 19/18 A2984 RMK AO2 SLP099 T01890183 $
KLFK 260853Z AUTO 17006KT 10SM CLR 19/18 A2981 RMK AO2 SLP091 T01940183 53007 $
KLFK 260753Z AUTO 17007KT 10SM CLR 20/18 A2980 RMK AO2 SLP086 T02000183 $
KLFK 260653Z AUTO 16007KT 10SM CLR 20/18 A2980 RMK AO2 SLP085 T02000178 $
KLFK 260553Z AUTO 16007KT 10SM CLR 21/17 A2979 RMK AO2 SLP084 T02060172 10289 20206 403060117 50006 $
KLFK 260453Z AUTO 16007KT 10SM CLR 21/17 A2980 RMK AO2 SLP086 T02110167 $
KLFK 260353Z AUTO 16009KT 10SM CLR 22/16 A2979 RMK AO2 SLP082 T02170161 $
KLFK 260253Z AUTO 18008KT 10SM CLR 23/14 A2978 RMK AO2 PRESRR SLP078 T02280144 53016 $
KLFK 260153Z AUTO 16010KT 10SM CLR 24/16 A2974 RMK AO2 SLP066 T02390156 $
KLFK 260053Z AUTO 16012KT 10SM CLR 26/18 A2973 RMK AO2 SLP063 T02610178 $
KLFK 252353Z AUTO 16010KT 10SM CLR 29/18 A2973 RMK AO2 SLP063 T02890178 10306 20283 58009 $
KLFK 252253Z AUTO 18011G19KT 10SM CLR 30/17 A2974 RMK AO2 SLP068 T03000167 $
KLFK 252153Z AUTO 19012G21KT 10SM CLR 31/17 A2975 RMK AO2 SLP071 T03060167 $
KLFK 252053Z AUTO 17009KT 10SM CLR 30/17 A2976 RMK AO2 SLP073 T03000172 58015 $
KLFK 251953Z AUTO 20012G20KT 10SM CLR 30/17 A2977 RMK AO2 SLP079 T03000167 $
KLFK 251853Z AUTO 19010G19KT 10SM CLR 29/16 A2979 RMK AO2 SLP084 T02890161 $
KLFK 251822Z AUTO 19013G21KT 10SM FEW002 28/16 A2980 RMK AO2 T02830161 $
KLFK 251753Z AUTO 18010G19KT 10SM CLR 28/16 A2980 RMK AO2 SLP088 T02830161 10283 20133 58008
KLFK 251653Z AUTO 18014G20KT 10SM CLR 27/15 A2981 RMK AO2 SLP092 T02720150
KLFK 251553Z AUTO 21013G21KT 10SM CLR 25/17 A2982 RMK AO2 SLP094 T02500167
KLFK 251453Z AUTO 20009KT 10SM CLR 23/17 A2983 RMK AO2 SLP097 T02280167 50006
KLFK 251353Z AUTO 15005KT 10SM CLR 20/14 A2983 RMK AO2 SLP097 T02000144
KLFK 251253Z AUTO 13004KT 10SM CLR 16/12 A2982 RMK AO2 SLP095 T01610122
KLFK 251153Z AUTO 12004KT 10SM CLR 13/11 A2981 RMK AO2 SLP090 T01330111 10144 20117 51016
KLFK 251053Z AUTO 12005KT 10SM CLR 12/11 A2980 RMK AO2 SLP086 T01220111
KLFK 250953Z AUTO 11003KT 10SM CLR 13/11 A2979 RMK AO2 SLP083 T01280111


Page loaded:  20:54 UTC  |   01:54 PM Pacific  |   02:54 PM Mountain  |   03:54 PM Central  |   04:54 PM Eastern

 

ADVISORIES

FORECASTS

FORECASTS

OBSERVATIONS

USER TOOLS

ABOUT US